createdAt,value
2018-08-30T00:00:29.575Z,51.55
2018-08-30T00:02:59.152Z,51.64
2018-08-30T00:05:28.718Z,52.17
2018-08-30T00:07:58.255Z,53.27
2018-08-30T00:10:27.809Z,53.23
2018-08-30T00:12:57.335Z,53.70
2018-08-30T00:15:26.893Z,53.71
2018-08-30T00:17:56.448Z,54.03
2018-08-30T00:20:25.996Z,54.49
2018-08-30T00:22:55.645Z,55.03
2018-08-30T00:25:25.260Z,55.34
2018-08-30T00:27:54.802Z,55.71
2018-08-30T00:30:24.357Z,55.21
2018-08-30T00:32:53.927Z,55.48
2018-08-30T00:35:23.519Z,55.37
2018-08-30T00:37:53.155Z,56.15
2018-08-30T00:40:22.664Z,56.50
2018-08-30T00:42:52.203Z,57.10
2018-08-30T00:45:21.775Z,57.21
2018-08-30T00:47:51.283Z,56.55
2018-08-30T00:50:20.916Z,56.03
2018-08-30T00:52:50.442Z,55.32
2018-08-30T00:55:20.033Z,56.74
2018-08-30T00:57:49.582Z,57.29
2018-08-30T01:00:19.228Z,57.14
2018-08-30T01:02:48.778Z,56.88
2018-08-30T01:05:18.311Z,57.28
2018-08-30T01:07:47.856Z,57.70
2018-08-30T01:10:17.412Z,57.24
2018-08-30T01:12:52.061Z,57.25
2018-08-30T01:15:22.419Z,57.13
2018-08-30T01:17:51.940Z,57.21
2018-08-30T01:20:21.943Z,57.88
2018-08-30T01:22:51.573Z,57.94
2018-08-30T01:25:21.276Z,58.20
2018-08-30T01:27:50.836Z,58.26
2018-08-30T01:30:20.406Z,58.27
2018-08-30T01:32:49.963Z,58.26
2018-08-30T01:35:19.496Z,58.76
2018-08-30T01:37:49.091Z,58.66
2018-08-30T01:40:18.760Z,58.67
2018-08-30T01:42:48.267Z,58.63
2018-08-30T01:45:17.815Z,58.85
2018-08-30T01:47:47.311Z,59.49
2018-08-30T01:50:16.843Z,59.47
2018-08-30T01:52:46.350Z,59.46
2018-08-30T01:55:15.981Z,59.91
2018-08-30T01:57:45.607Z,60.09
2018-08-30T02:00:15.152Z,59.32
2018-08-30T02:02:44.695Z,59.36
2018-08-30T02:05:14.267Z,59.87
2018-08-30T02:07:43.799Z,60.06
2018-08-30T02:10:13.396Z,60.25
2018-08-30T02:12:42.935Z,60.27
2018-08-30T02:15:12.519Z,60.33
2018-08-30T02:17:42.116Z,61.07
2018-08-30T02:20:11.703Z,61.33
2018-08-30T02:22:41.221Z,60.81
2018-08-30T02:25:10.804Z,60.98
2018-08-30T02:27:40.347Z,61.22
2018-08-30T02:30:09.943Z,61.67
2018-08-30T02:32:39.436Z,61.36
2018-08-30T02:35:08.929Z,61.22
2018-08-30T02:37:38.522Z,61.55
2018-08-30T02:40:08.152Z,60.93
2018-08-30T02:42:37.691Z,61.32
2018-08-30T02:45:07.336Z,61.47
2018-08-30T02:47:36.844Z,61.20
2018-08-30T02:50:06.588Z,61.42
2018-08-30T02:52:36.104Z,61.43
2018-08-30T02:55:05.748Z,62.05
2018-08-30T02:57:35.327Z,61.78
2018-08-30T03:00:05.110Z,61.98
2018-08-30T03:02:34.787Z,62.71
2018-08-30T03:05:04.323Z,62.62
2018-08-30T03:07:33.819Z,62.08
2018-08-30T03:10:03.385Z,62.55
2018-08-30T03:12:33.356Z,62.25
2018-08-30T03:15:09.979Z,62.72
2018-08-30T03:17:39.545Z,63.15
2018-08-30T03:20:11.572Z,63.38
2018-08-30T03:22:41.996Z,62.88
2018-08-30T03:25:11.576Z,63.21
2018-08-30T03:27:41.156Z,63.68
2018-08-30T03:30:10.878Z,63.76
2018-08-30T03:32:40.332Z,63.21
2018-08-30T03:35:09.932Z,63.63
2018-08-30T03:37:39.424Z,63.98
2018-08-30T03:40:09.088Z,63.62
2018-08-30T03:42:38.594Z,64.08
2018-08-30T03:45:08.238Z,63.77
2018-08-30T03:47:37.803Z,63.25
2018-08-30T03:50:07.464Z,63.72
2018-08-30T03:52:36.978Z,63.27
2018-08-30T03:55:06.647Z,63.43
2018-08-30T03:57:36.210Z,63.93
2018-08-30T04:00:05.877Z,63.29
2018-08-30T04:02:35.403Z,63.76
2018-08-30T04:05:05.038Z,63.11
2018-08-30T04:07:34.563Z,62.84
2018-08-30T04:10:04.232Z,62.62
2018-08-30T04:12:33.767Z,63.59
2018-08-30T04:15:03.368Z,63.02
2018-08-30T04:17:32.975Z,63.47
2018-08-30T04:20:02.542Z,62.87
2018-08-30T04:22:32.060Z,62.60
2018-08-30T04:25:01.584Z,62.66
2018-08-30T04:27:31.132Z,62.13
2018-08-30T04:30:00.711Z,62.48
2018-08-30T04:32:30.243Z,62.14
2018-08-30T04:34:59.767Z,62.19
2018-08-30T04:37:29.373Z,61.58
2018-08-30T04:39:58.879Z,59.79
2018-08-30T04:42:28.457Z,59.63
2018-08-30T04:44:57.947Z,59.71
2018-08-30T04:47:27.592Z,59.91
2018-08-30T04:49:57.170Z,58.17
2018-08-30T04:52:26.752Z,57.19
2018-08-30T04:54:56.323Z,57.28
2018-08-30T04:57:26.008Z,56.64
2018-08-30T04:59:55.644Z,56.76
2018-08-30T05:02:44.633Z,56.94
2018-08-30T05:05:14.269Z,55.76
2018-08-30T05:07:44.283Z,54.75
2018-08-30T05:10:13.971Z,54.72
2018-08-30T05:12:43.491Z,53.94
2018-08-30T05:15:13.120Z,53.27
2018-08-30T05:17:42.787Z,52.35
2018-08-30T05:20:12.355Z,52.62
2018-08-30T05:22:41.880Z,52.15
2018-08-30T05:25:11.455Z,52.80
2018-08-30T05:27:40.970Z,52.17
2018-08-30T05:30:10.671Z,51.95
2018-08-30T05:32:40.216Z,51.35
2018-08-30T05:35:09.924Z,50.99
2018-08-30T05:37:39.580Z,50.38
2018-08-30T05:40:09.296Z,49.12
2018-08-30T05:42:38.923Z,48.60
2018-08-30T05:45:08.480Z,47.82
2018-08-30T05:47:38.040Z,47.22
2018-08-30T05:50:08.016Z,46.95
2018-08-30T05:52:37.608Z,45.49
2018-08-30T05:55:07.272Z,45.69
2018-08-30T05:57:36.837Z,45.24
2018-08-30T06:00:06.582Z,45.06
2018-08-30T06:02:36.270Z,44.60
2018-08-30T06:05:06.021Z,43.99
2018-08-30T06:07:35.716Z,44.32
2018-08-30T06:10:05.465Z,43.78
2018-08-30T06:12:35.125Z,43.49
2018-08-30T06:15:04.931Z,43.56
2018-08-30T06:17:34.641Z,43.50
2018-08-30T06:20:04.460Z,43.24
2018-08-30T06:22:34.062Z,43.03
2018-08-30T06:25:03.744Z,42.04
2018-08-30T06:27:33.377Z,42.52
2018-08-30T06:30:03.113Z,42.45
2018-08-30T06:32:32.789Z,42.21
2018-08-30T06:35:02.448Z,42.15
2018-08-30T06:37:32.307Z,41.90
2018-08-30T06:40:02.010Z,41.30
2018-08-30T06:42:31.833Z,41.34
2018-08-30T06:45:01.500Z,41.32
2018-08-30T06:47:31.214Z,41.48
2018-08-30T06:50:00.838Z,41.40
2018-08-30T06:52:30.470Z,41.37
2018-08-30T06:55:00.039Z,40.38
2018-08-30T06:57:29.668Z,40.41
2018-08-30T06:59:59.191Z,40.52
2018-08-30T07:02:28.835Z,40.35
2018-08-30T07:04:58.467Z,40.18
2018-08-30T07:07:28.196Z,39.40
2018-08-30T07:09:57.989Z,38.93
2018-08-30T07:12:27.644Z,39.46
2018-08-30T07:14:57.493Z,39.60
2018-08-30T07:17:27.144Z,38.93
2018-08-30T07:19:56.779Z,39.49
2018-08-30T07:22:26.504Z,38.52
2018-08-30T07:24:56.221Z,39.00
2018-08-30T07:27:26.151Z,38.64
2018-08-30T07:29:55.741Z,38.84
2018-08-30T07:32:25.456Z,38.60
2018-08-30T07:34:55.197Z,38.32
2018-08-30T07:37:24.811Z,38.83
2018-08-30T07:39:54.419Z,37.68
2018-08-30T07:42:24.038Z,37.32
2018-08-30T07:44:53.684Z,37.86
2018-08-30T07:47:23.456Z,37.38
2018-08-30T07:49:52.918Z,37.21
2018-08-30T07:52:22.452Z,37.37
2018-08-30T07:54:52.173Z,37.37
2018-08-30T07:57:21.735Z,37.38
2018-08-30T07:59:51.376Z,37.24
2018-08-30T08:02:20.855Z,36.95
2018-08-30T08:04:50.379Z,37.74
2018-08-30T08:07:20.039Z,37.42
2018-08-30T08:09:49.520Z,38.16
2018-08-30T08:12:19.125Z,36.95
2018-08-30T08:14:48.839Z,36.85
2018-08-30T08:17:18.369Z,36.87
2018-08-30T08:19:47.931Z,35.95
2018-08-30T08:22:17.626Z,35.86
2018-08-30T08:24:47.273Z,35.48
2018-08-30T08:27:16.936Z,36.19
2018-08-30T08:29:46.543Z,35.89
2018-08-30T08:32:16.222Z,36.02
2018-08-30T08:34:45.833Z,35.80
2018-08-30T08:37:15.449Z,35.43
2018-08-30T08:39:45.088Z,35.67
2018-08-30T08:42:14.755Z,34.97
2018-08-30T08:44:44.438Z,34.94
2018-08-30T08:47:14.511Z,34.76
2018-08-30T08:49:44.132Z,34.85
2018-08-30T08:52:13.761Z,34.86
2018-08-30T08:54:43.394Z,35.08
2018-08-30T08:57:13.115Z,34.56
2018-08-30T08:59:42.685Z,34.99
2018-08-30T09:02:12.260Z,35.01
2018-08-30T09:04:41.913Z,35.05
2018-08-30T09:07:11.621Z,34.96
2018-08-30T09:09:41.147Z,34.48
2018-08-30T09:12:10.800Z,34.75
2018-08-30T09:14:40.496Z,34.11
2018-08-30T09:17:10.182Z,33.56
2018-08-30T09:19:39.763Z,32.60
2018-08-30T09:22:09.322Z,33.08
2018-08-30T09:24:38.880Z,32.50
2018-08-30T09:27:08.421Z,32.87
2018-08-30T09:29:38.023Z,32.83
2018-08-30T09:32:07.615Z,32.58
2018-08-30T09:34:37.342Z,32.53
2018-08-30T09:37:07.103Z,32.83
2018-08-30T09:39:36.751Z,32.98
2018-08-30T09:42:06.303Z,33.20
2018-08-30T09:44:35.953Z,32.21
2018-08-30T09:47:05.660Z,32.24
2018-08-30T09:49:35.361Z,32.66
2018-08-30T09:52:05.462Z,32.86
2018-08-30T09:54:35.083Z,32.66
2018-08-30T09:57:04.925Z,32.30
2018-08-30T09:59:34.535Z,31.68
2018-08-30T10:02:09.237Z,31.97
2018-08-30T10:04:39.055Z,31.89
2018-08-30T10:07:08.702Z,31.70
2018-08-30T10:09:38.241Z,31.45
2018-08-30T10:12:07.843Z,31.17
2018-08-30T10:14:37.516Z,30.53
2018-08-30T10:17:07.243Z,30.85
2018-08-30T10:19:36.967Z,31.30
2018-08-30T10:22:06.740Z,30.54
2018-08-30T10:24:36.474Z,30.33
2018-08-30T10:27:06.150Z,30.09
2018-08-30T10:29:35.807Z,29.61
2018-08-30T10:32:05.475Z,30.68
2018-08-30T10:34:35.215Z,31.67
2018-08-30T10:37:05.046Z,30.96
2018-08-30T10:39:34.703Z,30.74
2018-08-30T10:42:04.358Z,30.77
2018-08-30T10:44:34.068Z,30.33
2018-08-30T10:47:03.714Z,30.48
2018-08-30T10:49:33.385Z,30.68
2018-08-30T10:52:02.982Z,28.96
2018-08-30T10:54:32.660Z,26.33
2018-08-30T10:57:02.328Z,26.55
2018-08-30T10:59:32.941Z,25.44
2018-08-30T11:02:02.648Z,24.67
2018-08-30T11:04:32.667Z,24.72
2018-08-30T11:07:02.738Z,25.73
2018-08-30T11:09:32.351Z,25.84
2018-08-30T11:12:01.958Z,25.17
2018-08-30T11:14:31.753Z,24.77
2018-08-30T11:17:01.332Z,25.16
2018-08-30T11:19:31.097Z,25.52
2018-08-30T11:22:00.728Z,24.03
2018-08-30T11:24:30.521Z,24.54
2018-08-30T11:27:00.357Z,25.03
2018-08-30T11:29:30.131Z,24.78
2018-08-30T11:31:59.922Z,25.70
2018-08-30T11:34:29.519Z,24.03
2018-08-30T11:36:59.171Z,24.28
2018-08-30T11:39:28.723Z,24.92
2018-08-30T11:41:58.324Z,24.87
2018-08-30T11:44:28.269Z,24.96
2018-08-30T11:46:57.945Z,24.45
2018-08-30T11:49:27.532Z,26.42
2018-08-30T11:51:57.231Z,24.92
2018-08-30T11:54:26.799Z,25.65
2018-08-30T11:56:56.402Z,25.48
2018-08-30T11:59:26.044Z,24.80
2018-08-30T12:01:56.112Z,24.15
2018-08-30T12:04:25.897Z,24.68
2018-08-30T12:06:55.689Z,24.35
2018-08-30T12:09:25.224Z,24.68
2018-08-30T12:11:54.860Z,24.82
2018-08-30T12:14:24.471Z,24.64
2018-08-30T12:16:53.975Z,25.91
2018-08-30T12:19:23.527Z,26.12
2018-08-30T12:21:53.055Z,26.43
2018-08-30T12:24:22.607Z,26.35
2018-08-30T12:26:52.307Z,26.21
2018-08-30T12:29:21.876Z,25.97
2018-08-30T12:31:51.571Z,24.59
2018-08-30T12:34:21.333Z,24.61
2018-08-30T12:36:50.978Z,23.85
2018-08-30T12:39:20.527Z,23.50
2018-08-30T12:41:50.389Z,23.85
2018-08-30T12:44:19.926Z,23.79
2018-08-30T12:46:49.655Z,24.28
2018-08-30T12:49:19.222Z,23.92
2018-08-30T12:51:48.830Z,23.56
2018-08-30T12:54:18.516Z,22.88
2018-08-30T12:56:48.031Z,23.35
2018-08-30T12:59:18.967Z,22.89
2018-08-30T13:01:48.541Z,22.58
2018-08-30T13:04:18.192Z,22.01
2018-08-30T13:06:52.903Z,23.02
2018-08-30T13:09:22.808Z,23.46
2018-08-30T13:11:52.381Z,22.18
2018-08-30T13:14:21.928Z,23.15
2018-08-30T13:16:51.786Z,22.66
2018-08-30T13:19:22.748Z,22.88
2018-08-30T13:21:52.436Z,23.07
2018-08-30T13:24:22.142Z,22.33
2018-08-30T13:26:51.852Z,23.27
2018-08-30T13:29:21.680Z,22.73
2018-08-30T13:31:52.114Z,22.77
2018-08-30T13:34:21.837Z,21.58
2018-08-30T13:36:51.562Z,22.44
2018-08-30T13:39:21.288Z,22.66
2018-08-30T13:41:51.018Z,21.39
2018-08-30T13:44:20.650Z,21.37
2018-08-30T13:46:50.381Z,22.06
2018-08-30T13:49:19.619Z,22.51
2018-08-30T13:51:49.558Z,22.98
2018-08-30T13:54:19.142Z,22.83
2018-08-30T13:56:48.837Z,22.66
2018-08-30T13:59:18.543Z,21.74
2018-08-30T14:01:48.347Z,21.82
2018-08-30T14:04:17.731Z,21.64
2018-08-30T14:06:47.419Z,21.15
2018-08-30T14:09:17.103Z,21.59
2018-08-30T14:11:46.710Z,21.52
2018-08-30T14:14:16.492Z,21.73
2018-08-30T14:16:45.984Z,21.50
2018-08-30T14:19:15.772Z,21.66
2018-08-30T14:21:45.261Z,22.23
2018-08-30T14:24:14.966Z,21.47
2018-08-30T14:26:44.755Z,22.21
2018-08-30T14:30:17.053Z,22.34
2018-08-30T14:32:46.877Z,22.74
2018-08-30T14:35:16.522Z,22.73
2018-08-30T14:37:46.245Z,21.95
2018-08-30T14:40:17.179Z,22.28
2018-08-30T14:42:46.876Z,21.55
2018-08-30T14:45:16.876Z,21.72
2018-08-30T14:47:46.581Z,21.56
2018-08-30T14:50:16.071Z,21.34
2018-08-30T14:52:45.689Z,21.32
2018-08-30T14:55:15.412Z,21.39
2018-08-30T14:57:45.216Z,21.32
2018-08-30T15:00:15.070Z,22.34
2018-08-30T15:02:44.788Z,22.81
2018-08-30T15:05:15.277Z,21.60
2018-08-30T15:07:44.770Z,21.37
2018-08-30T15:10:14.296Z,21.85
2018-08-30T15:12:44.131Z,21.98
2018-08-30T15:15:13.662Z,21.13
2018-08-30T15:17:43.269Z,21.68
2018-08-30T15:20:12.937Z,21.68
2018-08-30T15:22:42.423Z,22.10
2018-08-30T15:25:11.924Z,22.10
2018-08-30T15:27:41.451Z,22.06
2018-08-30T15:30:11.044Z,22.44
2018-08-30T15:32:40.629Z,22.20
2018-08-30T15:35:10.143Z,21.85
2018-08-30T15:37:39.745Z,22.31
2018-08-30T15:40:09.295Z,22.59
2018-08-30T15:42:38.835Z,22.93
2018-08-30T15:45:08.467Z,22.65
2018-08-30T15:47:38.098Z,23.15
2018-08-30T15:50:07.792Z,22.92
2018-08-30T15:52:37.543Z,23.81
2018-08-30T15:55:07.199Z,23.53
2018-08-30T15:57:36.833Z,24.08
2018-08-30T16:00:07.241Z,23.82
2018-08-30T16:02:36.739Z,24.16
2018-08-30T16:05:06.341Z,24.65
2018-08-30T16:07:36.011Z,23.98
2018-08-30T16:10:05.635Z,24.84
2018-08-30T16:12:35.148Z,25.06
2018-08-30T16:15:04.771Z,25.49
2018-08-30T16:17:34.316Z,25.90
2018-08-30T16:20:03.975Z,26.60
2018-08-30T16:23:47.435Z,26.99
2018-08-30T16:26:17.222Z,27.46
2018-08-30T16:28:46.726Z,27.67
2018-08-30T16:31:16.361Z,27.90
2018-08-30T16:33:45.887Z,28.46
2018-08-30T16:36:15.483Z,28.68
2018-08-30T16:38:45.092Z,29.41
2018-08-30T16:41:14.706Z,30.13
2018-08-30T16:43:44.262Z,30.64
2018-08-30T16:46:13.808Z,31.31
2018-08-30T16:48:43.417Z,32.15
2018-08-30T16:51:13.035Z,33.19
2018-08-30T16:53:42.587Z,34.18
2018-08-30T16:56:12.174Z,35.24
2018-08-30T16:58:41.767Z,35.56
2018-08-30T17:01:11.263Z,35.45
2018-08-30T17:03:40.808Z,36.60
2018-08-30T17:06:10.365Z,36.82
2018-08-30T17:08:39.963Z,37.87
2018-08-30T17:11:09.564Z,37.92
2018-08-30T17:13:39.269Z,38.10
2018-08-30T17:16:08.836Z,39.21
2018-08-30T17:18:38.646Z,39.26
2018-08-30T17:21:08.187Z,39.78
2018-08-30T17:23:37.744Z,39.54
2018-08-30T17:26:07.648Z,40.38
2018-08-30T17:28:37.177Z,40.41
2018-08-30T17:31:06.833Z,40.05
2018-08-30T17:33:36.564Z,41.50
2018-08-30T17:36:06.251Z,40.55
2018-08-30T17:38:35.817Z,40.76
2018-08-30T17:41:05.444Z,40.54
2018-08-30T17:43:35.040Z,40.97
2018-08-30T17:46:04.766Z,40.63
2018-08-30T17:48:34.296Z,40.62
2018-08-30T17:51:03.930Z,41.39
2018-08-30T17:53:33.630Z,40.15
2018-08-30T17:56:03.337Z,40.67
2018-08-30T17:58:32.827Z,40.52
2018-08-30T18:01:02.501Z,40.89
2018-08-30T18:03:32.108Z,41.57
2018-08-30T18:06:01.672Z,41.31
2018-08-30T18:08:31.271Z,41.53
2018-08-30T18:11:00.775Z,41.27
2018-08-30T18:13:30.392Z,41.93
2018-08-30T18:15:59.971Z,41.85
2018-08-30T18:18:29.602Z,41.40
2018-08-30T18:20:59.184Z,40.80
2018-08-30T18:23:28.705Z,41.35
2018-08-30T18:25:58.261Z,41.32
2018-08-30T18:28:27.809Z,40.63
2018-08-30T18:30:57.343Z,40.93
2018-08-30T18:33:26.918Z,41.48
2018-08-30T18:35:56.464Z,41.72
2018-08-30T18:38:26.148Z,42.29
2018-08-30T18:40:55.803Z,41.99
2018-08-30T18:43:25.459Z,41.45
2018-08-30T18:45:55.136Z,41.52
2018-08-30T18:48:24.760Z,41.85
2018-08-30T18:50:54.233Z,42.05
2018-08-30T18:53:23.811Z,42.21
2018-08-30T18:55:53.315Z,42.49
2018-08-30T18:58:22.951Z,42.71
2018-08-30T19:00:52.438Z,42.16
2018-08-30T19:03:22.258Z,43.13
2018-08-30T19:05:51.857Z,42.14
2018-08-30T19:08:21.382Z,42.37
2018-08-30T19:10:50.895Z,42.63
2018-08-30T19:13:20.568Z,42.95
2018-08-30T19:18:02.155Z,42.70
2018-08-30T19:20:31.780Z,42.29
2018-08-30T19:23:01.315Z,42.82
2018-08-30T19:25:31.100Z,42.47
2018-08-30T19:28:00.717Z,43.29
2018-08-30T19:30:31.772Z,43.40
2018-08-30T19:33:01.365Z,43.42
2018-08-30T19:35:36.092Z,42.91
2018-08-30T19:38:05.761Z,42.74
2018-08-30T19:40:40.389Z,42.79
2018-08-30T19:43:09.952Z,42.63
2018-08-30T19:45:39.555Z,42.43
2018-08-30T19:48:09.105Z,43.04
2018-08-30T19:50:38.748Z,43.43
2018-08-30T19:53:08.343Z,43.49
2018-08-30T19:55:37.847Z,43.24
2018-08-30T19:58:07.387Z,43.76
2018-08-30T20:00:36.920Z,43.97
2018-08-30T20:03:06.547Z,44.36
2018-08-30T20:05:36.119Z,44.04
2018-08-30T20:08:06.090Z,44.53
2018-08-30T20:10:35.724Z,44.46
2018-08-30T20:13:05.419Z,44.88
2018-08-30T20:15:34.969Z,45.43
2018-08-30T20:18:04.539Z,45.46
2018-08-30T20:20:34.207Z,46.23
2018-08-30T20:23:03.780Z,46.09
2018-08-30T20:25:33.339Z,46.04
2018-08-30T20:28:02.859Z,46.21
2018-08-30T20:30:32.394Z,47.09
2018-08-30T20:33:01.993Z,47.52
2018-08-30T20:35:31.620Z,46.94
2018-08-30T20:38:01.098Z,46.89
2018-08-30T20:40:30.671Z,47.98
2018-08-30T20:43:00.206Z,47.68
2018-08-30T20:45:29.813Z,47.66
2018-08-30T20:47:59.533Z,47.82
2018-08-30T20:50:29.111Z,48.24
2018-08-30T20:52:58.727Z,48.03
2018-08-30T20:55:28.259Z,48.34
2018-08-30T20:57:57.771Z,48.41
2018-08-30T21:00:27.571Z,48.60
2018-08-30T21:02:57.056Z,48.49
2018-08-30T21:05:26.587Z,48.77
2018-08-30T21:07:56.208Z,49.48
2018-08-30T21:10:25.843Z,49.47
2018-08-30T21:12:55.379Z,49.65
2018-08-30T21:15:24.978Z,49.98
2018-08-30T21:17:54.550Z,49.56
2018-08-30T21:20:24.064Z,50.12
2018-08-30T21:22:53.604Z,50.03
2018-08-30T21:25:23.135Z,50.16
2018-08-30T21:27:52.673Z,50.03
2018-08-30T21:30:22.271Z,49.96
2018-08-30T21:32:51.912Z,50.06
2018-08-30T21:35:21.547Z,50.31
2018-08-30T21:37:51.243Z,49.97
2018-08-30T21:40:20.738Z,50.54
2018-08-30T21:42:50.316Z,50.37
2018-08-30T21:45:19.891Z,50.69
2018-08-30T21:47:49.446Z,50.37
2018-08-30T21:50:19.033Z,49.75
2018-08-30T21:52:48.556Z,50.03
2018-08-30T21:55:18.092Z,49.99
2018-08-30T21:57:47.615Z,49.96
2018-08-30T22:00:17.243Z,49.05
2018-08-30T22:02:46.840Z,48.91
2018-08-30T22:05:16.304Z,48.57
2018-08-30T22:07:45.799Z,49.77
2018-08-30T22:10:15.347Z,50.16
2018-08-30T22:12:44.851Z,49.95
2018-08-30T22:15:14.453Z,49.37
2018-08-30T22:17:44.134Z,50.17
2018-08-30T22:20:13.680Z,49.67
2018-08-30T22:22:43.264Z,48.16
2018-08-30T22:25:12.744Z,48.07
2018-08-30T22:27:42.282Z,46.64
2018-08-30T22:30:12.081Z,47.22
2018-08-30T22:32:41.699Z,47.08
2018-08-30T22:35:11.253Z,48.74
2018-08-30T22:37:40.781Z,48.55
2018-08-30T22:40:10.296Z,48.74
2018-08-30T22:42:39.804Z,49.33
2018-08-30T22:45:09.356Z,49.38
2018-08-30T22:47:38.895Z,49.19
2018-08-30T22:50:08.439Z,49.86
2018-08-30T22:52:37.964Z,49.02
2018-08-30T22:55:07.481Z,48.99
2018-08-30T22:57:37.069Z,50.20
2018-08-30T23:00:06.777Z,50.12
2018-08-30T23:02:36.324Z,51.05
2018-08-30T23:05:05.906Z,50.97
2018-08-30T23:07:35.512Z,51.04
2018-08-30T23:10:05.127Z,51.70
2018-08-30T23:12:34.727Z,51.53
2018-08-30T23:15:04.371Z,51.97
2018-08-30T23:17:33.947Z,52.18
2018-08-30T23:20:03.548Z,51.85
2018-08-30T23:22:33.043Z,52.28
2018-08-30T23:25:02.588Z,50.67
2018-08-30T23:27:32.155Z,50.52
2018-08-30T23:30:01.655Z,52.50
2018-08-30T23:32:31.193Z,52.15
2018-08-30T23:35:00.711Z,51.51
2018-08-30T23:37:30.359Z,52.78
2018-08-30T23:39:59.851Z,53.45
2018-08-30T23:42:29.407Z,53.33
2018-08-30T23:44:58.968Z,53.29
2018-08-30T23:47:28.585Z,52.91
2018-08-30T23:49:58.172Z,53.01
2018-08-30T23:52:27.827Z,52.53
2018-08-30T23:54:57.388Z,52.64
2018-08-30T23:57:26.984Z,52.62
